createdAt,value
2022-09-01T00:00:43.126Z,9.70
2022-09-01T00:01:43.369Z,8.00
2022-09-01T00:02:43.722Z,6.70
2022-09-01T00:03:43.997Z,6.60
2022-09-01T00:04:44.427Z,7.90
2022-09-01T00:05:44.658Z,7.10
2022-09-01T00:06:44.972Z,8.70
2022-09-01T00:07:45.254Z,8.10
2022-09-01T00:08:45.584Z,8.10
2022-09-01T00:09:45.863Z,7.70
2022-09-01T00:10:46.194Z,9.00
2022-09-01T00:11:50.301Z,9.60
2022-09-01T00:12:46.720Z,6.40
2022-09-01T00:13:47.001Z,6.40
2022-09-01T00:14:47.244Z,7.10
2022-09-01T00:15:47.643Z,8.00
2022-09-01T00:16:47.902Z,8.40
2022-09-01T00:17:48.187Z,7.20
2022-09-01T00:18:48.462Z,9.80
2022-09-01T00:19:48.774Z,8.00
2022-09-01T00:20:49.075Z,7.40
2022-09-01T00:21:49.294Z,6.50
2022-09-01T00:22:49.638Z,11.10
2022-09-01T00:23:49.862Z,8.10
2022-09-01T00:24:50.204Z,8.90
2022-09-01T00:25:50.491Z,10.20
2022-09-01T00:26:50.793Z,7.40
2022-09-01T00:27:51.098Z,7.50
2022-09-01T00:28:51.378Z,9.50
2022-09-01T00:29:51.667Z,9.40
2022-09-01T00:30:51.975Z,10.00
2022-09-01T00:31:52.210Z,11.60
2022-09-01T00:32:52.485Z,16.90
2022-09-01T00:33:52.803Z,12.00
2022-09-01T00:34:53.151Z,10.60
2022-09-01T00:35:53.320Z,11.60
2022-09-01T00:36:53.660Z,10.50
2022-09-01T00:37:53.970Z,9.40
2022-09-01T00:38:54.234Z,9.90
2022-09-01T00:39:54.583Z,11.00
2022-09-01T00:40:54.873Z,11.30
2022-09-01T00:41:55.250Z,11.60
2022-09-01T00:42:55.446Z,10.00
2022-09-01T00:43:55.746Z,9.50
2022-09-01T00:44:56.149Z,11.00
2022-09-01T00:45:56.422Z,9.70
2022-09-01T00:46:56.677Z,11.70
2022-09-01T00:47:56.876Z,10.30
2022-09-01T00:48:57.142Z,10.40
2022-09-01T00:49:57.430Z,10.20
2022-09-01T00:50:57.733Z,9.70
2022-09-01T00:51:58.029Z,10.80
2022-09-01T00:52:58.313Z,11.10
2022-09-01T00:53:58.609Z,9.40
2022-09-01T00:54:58.896Z,11.70
2022-09-01T00:55:59.223Z,11.10
2022-09-01T00:56:59.561Z,8.80
2022-09-01T00:57:59.839Z,10.40
2022-09-01T00:59:00.117Z,10.50
2022-09-01T01:00:00.518Z,9.90
2022-09-01T01:01:00.890Z,9.90
2022-09-01T01:02:01.032Z,9.60
2022-09-01T01:03:01.415Z,9.80
2022-09-01T01:04:01.599Z,9.60
2022-09-01T01:05:01.921Z,12.20
2022-09-01T01:06:02.267Z,11.50
2022-09-01T01:07:02.552Z,8.50
2022-09-01T01:08:02.868Z,11.20
2022-09-01T01:09:03.084Z,10.20
2022-09-01T01:10:03.421Z,11.50
2022-09-01T01:11:03.635Z,13.70
2022-09-01T01:12:03.937Z,11.80
2022-09-01T01:13:04.309Z,9.50
2022-09-01T01:14:04.497Z,9.50
2022-09-01T01:15:04.837Z,9.50
2022-09-01T01:16:04.988Z,10.20
2022-09-01T01:17:05.334Z,11.60
2022-09-01T01:18:05.557Z,9.70
2022-09-01T01:19:05.869Z,9.50
2022-09-01T01:20:06.149Z,9.40
2022-09-01T01:21:06.497Z,11.00
2022-09-01T01:22:06.825Z,10.50
2022-09-01T01:23:07.133Z,12.30
2022-09-01T01:24:07.426Z,11.60
2022-09-01T01:25:07.765Z,9.30
2022-09-01T01:26:08.053Z,8.40
2022-09-01T01:27:08.321Z,10.80
2022-09-01T01:28:08.687Z,9.00
2022-09-01T01:29:08.950Z,9.00
2022-09-01T01:30:09.377Z,8.60
2022-09-01T01:31:09.511Z,10.60
2022-09-01T01:32:09.701Z,10.00
2022-09-01T01:33:09.980Z,10.90
2022-09-01T01:34:10.228Z,9.00
2022-09-01T01:35:10.621Z,9.00
2022-09-01T01:36:10.819Z,9.50
2022-09-01T01:37:11.084Z,8.40
2022-09-01T01:38:11.402Z,10.10
2022-09-01T01:39:11.720Z,10.10
2022-09-01T01:40:12.064Z,9.30
2022-09-01T01:41:12.322Z,9.10
2022-09-01T01:42:12.606Z,9.00
2022-09-01T01:43:12.795Z,10.20
2022-09-01T01:44:13.253Z,10.30
2022-09-01T01:45:13.582Z,9.90
2022-09-01T01:46:13.917Z,11.50
2022-09-01T01:47:14.172Z,8.60
2022-09-01T01:48:14.507Z,9.30
2022-09-01T01:49:14.792Z,10.70
2022-09-01T01:50:15.142Z,10.10
2022-09-01T01:51:15.426Z,9.40
2022-09-01T01:52:15.705Z,8.70
2022-09-01T01:53:15.978Z,10.00
2022-09-01T01:54:16.358Z,8.30
2022-09-01T01:55:16.683Z,10.50
2022-09-01T01:56:16.869Z,11.70
2022-09-01T01:57:17.275Z,10.40
2022-09-01T01:58:17.464Z,8.50
2022-09-01T01:59:17.797Z,9.20
2022-09-01T02:00:18.081Z,8.20
2022-09-01T02:01:19.401Z,11.00
2022-09-01T02:02:18.792Z,9.80
2022-09-01T02:03:18.855Z,10.10
2022-09-01T02:04:19.233Z,9.90
2022-09-01T02:05:19.544Z,13.80
2022-09-01T02:06:19.850Z,8.80
2022-09-01T02:07:20.178Z,10.70
2022-09-01T02:08:20.587Z,9.60
2022-09-01T02:09:20.804Z,9.00
2022-09-01T02:10:21.051Z,11.50
2022-09-01T02:11:21.432Z,9.40
2022-09-01T02:12:21.649Z,12.80
2022-09-01T02:13:21.928Z,9.90
2022-09-01T02:14:22.273Z,10.90
2022-09-01T02:15:22.526Z,10.90
2022-09-01T02:16:22.890Z,12.40
2022-09-01T02:17:23.075Z,8.80
2022-09-01T02:18:23.446Z,8.30
2022-09-01T02:19:23.730Z,9.80
2022-09-01T02:20:24.007Z,9.50
2022-09-01T02:21:24.388Z,9.70
2022-09-01T02:22:24.797Z,9.20
2022-09-01T02:23:25.006Z,11.20
2022-09-01T02:24:25.307Z,9.50
2022-09-01T02:25:25.581Z,11.80
2022-09-01T02:26:25.904Z,9.70
2022-09-01T02:27:26.179Z,10.70
2022-09-01T02:28:26.575Z,10.30
2022-09-01T02:29:26.806Z,8.70
2022-09-01T02:30:27.118Z,10.60
2022-09-01T02:31:27.444Z,8.50
2022-09-01T02:32:27.638Z,12.30
2022-09-01T02:33:27.983Z,10.40
2022-09-01T02:34:28.357Z,9.60
2022-09-01T02:35:28.526Z,10.40
2022-09-01T02:36:28.861Z,9.60
2022-09-01T02:37:29.147Z,9.30
2022-09-01T02:38:29.433Z,11.70
2022-09-01T02:39:29.701Z,11.30
2022-09-01T02:40:30.066Z,10.40
2022-09-01T02:41:30.271Z,9.70
2022-09-01T02:42:30.569Z,11.60
2022-09-01T02:43:30.809Z,11.00
2022-09-01T02:44:31.196Z,9.50
2022-09-01T02:45:31.397Z,9.00
2022-09-01T02:46:31.751Z,11.90
2022-09-01T02:47:31.933Z,11.40
2022-09-01T02:48:32.228Z,13.60
2022-09-01T02:49:32.490Z,8.90
2022-09-01T02:50:32.762Z,11.70
2022-09-01T02:51:33.096Z,9.90
2022-09-01T02:52:33.341Z,11.80
2022-09-01T02:53:33.547Z,12.30
2022-09-01T02:54:33.849Z,11.20
2022-09-01T02:55:34.146Z,11.60
2022-09-01T02:56:34.433Z,9.90
2022-09-01T02:57:34.745Z,10.70
2022-09-01T02:58:35.007Z,10.80
2022-09-01T02:59:35.337Z,10.20
2022-09-01T03:00:35.660Z,10.80
2022-09-01T03:01:35.953Z,11.10
2022-09-01T03:02:36.252Z,11.00
2022-09-01T03:03:36.563Z,9.70
2022-09-01T03:04:36.854Z,9.70
2022-09-01T03:05:37.191Z,9.00
2022-09-01T03:06:37.408Z,10.60
2022-09-01T03:07:37.704Z,12.00
2022-09-01T03:08:38.012Z,12.30
2022-09-01T03:09:38.349Z,9.70
2022-09-01T03:10:38.634Z,10.80
2022-09-01T03:11:38.935Z,9.70
2022-09-01T03:12:39.246Z,9.30
2022-09-01T03:13:39.541Z,11.30
2022-09-01T03:14:39.813Z,10.20
2022-09-01T03:15:40.127Z,14.90
2022-09-01T03:16:40.533Z,9.20
2022-09-01T03:17:40.711Z,10.60
2022-09-01T03:18:41.040Z,11.60
2022-09-01T03:19:41.386Z,8.90
2022-09-01T03:20:41.762Z,12.10
2022-09-01T03:21:41.914Z,11.90
2022-09-01T03:22:42.237Z,10.50
2022-09-01T03:23:42.567Z,10.20
2022-09-01T03:24:43.064Z,11.50
2022-09-01T03:25:43.183Z,10.00
2022-09-01T03:26:43.468Z,11.20
2022-09-01T03:27:43.872Z,9.30
2022-09-01T03:28:44.096Z,11.90
2022-09-01T03:29:44.430Z,10.50
2022-09-01T03:30:44.725Z,11.00
2022-09-01T03:31:44.980Z,11.00
2022-09-01T03:32:45.257Z,11.90
2022-09-01T03:33:45.506Z,9.10
2022-09-01T03:34:45.880Z,10.20
2022-09-01T03:35:46.156Z,13.30
2022-09-01T03:36:46.435Z,10.90
2022-09-01T03:37:46.855Z,12.20
2022-09-01T03:38:47.004Z,10.20
2022-09-01T03:39:47.349Z,10.20
2022-09-01T03:40:47.553Z,11.30
2022-09-01T03:41:47.875Z,12.10
2022-09-01T03:42:48.195Z,10.40
2022-09-01T03:43:48.647Z,8.40
2022-09-01T03:44:48.730Z,9.00
2022-09-01T03:45:49.081Z,11.60
2022-09-01T03:46:49.284Z,9.60
2022-09-01T03:47:49.555Z,13.30
2022-09-01T03:48:49.906Z,10.80
2022-09-01T03:49:50.199Z,13.60
2022-09-01T03:50:50.542Z,9.90
2022-09-01T03:51:50.816Z,9.60
2022-09-01T03:52:51.135Z,10.60
2022-09-01T03:53:51.407Z,10.90
2022-09-01T03:54:51.682Z,10.10
2022-09-01T03:55:51.966Z,11.20
2022-09-01T03:56:52.305Z,9.60
2022-09-01T03:57:52.581Z,9.90
2022-09-01T03:58:52.884Z,11.40
2022-09-01T03:59:53.175Z,9.10
2022-09-01T04:00:53.465Z,10.70
2022-09-01T04:01:53.815Z,9.60
2022-09-01T04:02:56.222Z,10.50
2022-09-01T04:03:54.268Z,9.70
2022-09-01T04:04:54.611Z,13.10
2022-09-01T04:05:54.846Z,11.80
2022-09-01T04:06:55.157Z,11.60
2022-09-01T04:07:55.411Z,14.00
2022-09-01T04:08:55.721Z,9.50
2022-09-01T04:09:55.975Z,11.50
2022-09-01T04:10:56.318Z,10.40
2022-09-01T04:11:56.610Z,10.50
2022-09-01T04:12:56.785Z,11.90
2022-09-01T04:13:57.107Z,10.80
2022-09-01T04:14:57.443Z,11.50
2022-09-01T04:15:57.750Z,11.60
2022-09-01T04:16:58.192Z,10.60
2022-09-01T04:17:58.422Z,11.70
2022-09-01T04:18:58.724Z,12.70
2022-09-01T04:19:58.946Z,10.70
2022-09-01T04:20:59.223Z,9.80
2022-09-01T04:21:59.494Z,10.40
2022-09-01T04:22:59.900Z,10.50
2022-09-01T04:24:00.111Z,11.40
2022-09-01T04:25:00.335Z,11.60
2022-09-01T04:26:00.712Z,9.90
2022-09-01T04:27:00.935Z,12.80
2022-09-01T04:28:01.168Z,10.80
2022-09-01T04:29:01.404Z,11.90
2022-09-01T04:30:01.628Z,10.60
2022-09-01T04:31:02.415Z,11.50
2022-09-01T04:32:02.418Z,11.50
2022-09-01T04:33:02.706Z,10.30
2022-09-01T04:34:02.896Z,11.40
2022-09-01T04:35:03.186Z,11.10
2022-09-01T04:36:03.445Z,11.40
2022-09-01T04:37:03.731Z,12.40
2022-09-01T04:38:03.972Z,11.70
2022-09-01T04:39:04.180Z,10.00
2022-09-01T04:40:04.582Z,10.80
2022-09-01T04:41:04.760Z,13.00
2022-09-01T04:42:05.113Z,9.70
2022-09-01T04:43:05.454Z,11.00
2022-09-01T04:44:05.768Z,14.20
2022-09-01T04:45:10.676Z,16.20
2022-09-01T04:46:07.260Z,13.80
2022-09-01T04:47:06.461Z,11.00
2022-09-01T04:48:06.728Z,12.00
2022-09-01T04:49:06.981Z,12.10
2022-09-01T04:50:08.253Z,13.70
2022-09-01T04:51:07.564Z,11.00
2022-09-01T04:52:07.870Z,12.40
2022-09-01T04:53:08.076Z,13.70
2022-09-01T04:54:08.352Z,12.20
2022-09-01T04:55:08.624Z,14.20
2022-09-01T04:56:08.818Z,16.80
2022-09-01T04:57:09.293Z,24.60
2022-09-01T04:58:20.740Z,30.70
2022-09-01T04:59:10.785Z,38.30
2022-09-01T05:00:10.090Z,31.70
2022-09-01T05:01:10.322Z,32.80
2022-09-01T05:02:10.615Z,27.00
2022-09-01T05:03:10.847Z,30.00
2022-09-01T05:04:11.135Z,21.10
2022-09-01T05:05:11.806Z,14.30
2022-09-01T05:06:11.621Z,11.60
2022-09-01T05:07:11.876Z,13.10
2022-09-01T05:08:12.163Z,12.60
2022-09-01T05:09:12.369Z,11.80
2022-09-01T05:10:12.827Z,13.10
2022-09-01T05:11:13.473Z,11.10
2022-09-01T05:12:15.911Z,10.80
2022-09-01T05:13:13.454Z,13.90
2022-09-01T05:14:13.790Z,17.20
2022-09-01T05:15:14.010Z,12.80
2022-09-01T05:16:14.294Z,22.70
2022-09-01T05:17:14.595Z,14.20
2022-09-01T05:18:14.830Z,15.20
2022-09-01T05:19:15.121Z,12.10
2022-09-01T05:20:15.346Z,19.30
2022-09-01T05:21:15.654Z,11.70
2022-09-01T05:22:15.865Z,13.90
2022-09-01T05:23:16.110Z,16.80
2022-09-01T05:24:16.368Z,17.10
2022-09-01T05:25:17.094Z,14.60
2022-09-01T05:26:16.940Z,10.80
2022-09-01T05:27:17.306Z,12.40
2022-09-01T05:28:17.533Z,12.50
2022-09-01T05:29:17.815Z,12.60
2022-09-01T05:30:18.090Z,11.80
2022-09-01T05:31:18.688Z,15.40
2022-09-01T05:32:18.565Z,14.60
2022-09-01T05:33:21.812Z,13.70
2022-09-01T05:34:19.077Z,12.90
2022-09-01T05:35:19.481Z,11.50
2022-09-01T05:36:19.730Z,17.90
2022-09-01T05:37:20.001Z,9.90
2022-09-01T05:38:20.400Z,11.50
2022-09-01T05:39:20.673Z,13.20
2022-09-01T05:40:20.864Z,13.10
2022-09-01T05:41:21.381Z,13.50
2022-09-01T05:42:21.406Z,10.60
2022-09-01T05:43:27.257Z,11.50
2022-09-01T05:44:22.086Z,13.60
2022-09-01T05:45:22.341Z,14.80
2022-09-01T05:46:22.568Z,16.40
2022-09-01T05:47:25.331Z,13.90
2022-09-01T05:48:23.064Z,13.50
2022-09-01T05:49:23.314Z,14.40
2022-09-01T05:50:23.614Z,13.10
2022-09-01T05:51:43.384Z,12.60
2022-09-01T05:52:25.143Z,14.80
2022-09-01T05:53:24.353Z,13.40
2022-09-01T05:54:24.732Z,13.30
2022-09-01T05:55:25.025Z,15.10
2022-09-01T05:56:25.268Z,13.20
2022-09-01T05:57:40.691Z,12.80
2022-09-01T05:58:26.894Z,16.00
2022-09-01T05:59:26.473Z,15.20
2022-09-01T06:00:26.303Z,12.40
2022-09-01T06:01:26.705Z,19.30
2022-09-01T06:02:27.317Z,14.50
2022-09-01T06:03:27.354Z,12.40
2022-09-01T06:04:27.421Z,11.60
2022-09-01T06:05:27.683Z,11.50
2022-09-01T06:06:27.946Z,10.90
2022-09-01T06:07:28.211Z,10.40
2022-09-01T06:08:28.500Z,9.50
2022-09-01T06:09:28.686Z,11.60
2022-09-01T06:10:28.920Z,11.50
2022-09-01T06:11:29.177Z,10.50
2022-09-01T06:12:29.436Z,10.70
2022-09-01T06:13:29.695Z,9.50
2022-09-01T06:14:30.008Z,9.00
2022-09-01T06:15:30.372Z,9.50
2022-09-01T06:16:30.610Z,10.80
2022-09-01T06:17:30.841Z,8.00
2022-09-01T06:18:31.151Z,9.90
2022-09-01T06:19:36.227Z,8.40
2022-09-01T06:20:32.712Z,8.40
2022-09-01T06:21:32.099Z,10.50
2022-09-01T06:22:32.320Z,9.20
2022-09-01T06:23:32.618Z,10.40
2022-09-01T06:24:32.863Z,7.70
2022-09-01T06:25:33.136Z,10.60
2022-09-01T06:26:33.422Z,8.60
2022-09-01T06:27:33.618Z,13.80
2022-09-01T06:28:33.986Z,10.30
2022-09-01T06:29:34.222Z,10.90
2022-09-01T06:30:34.503Z,10.60
2022-09-01T06:31:34.774Z,8.80
2022-09-01T06:32:35.027Z,9.10
2022-09-01T06:33:35.310Z,8.50
2022-09-01T06:34:35.511Z,8.90
2022-09-01T06:35:35.779Z,10.60
2022-09-01T06:36:35.998Z,8.30
2022-09-01T06:37:36.338Z,9.40
2022-09-01T06:38:36.645Z,8.40
2022-09-01T06:39:36.920Z,9.70
2022-09-01T06:40:37.298Z,9.60
2022-09-01T06:41:37.495Z,15.40
2022-09-01T06:42:37.786Z,11.80
2022-09-01T06:43:38.051Z,13.10
2022-09-01T06:44:41.293Z,13.80
2022-09-01T06:45:38.663Z,16.50
2022-09-01T06:46:38.981Z,14.50
2022-09-01T06:47:39.215Z,12.90
2022-09-01T06:48:40.389Z,11.40
2022-09-01T06:49:39.812Z,13.90
2022-09-01T06:51:41.394Z,11.80
2022-09-01T06:53:41.928Z,12.40
2022-09-01T06:54:41.211Z,11.30
2022-09-01T06:55:41.491Z,9.70
2022-09-01T06:56:44.695Z,10.40
2022-09-01T06:58:43.387Z,12.00
2022-09-01T06:59:42.605Z,12.80
2022-09-01T07:00:42.884Z,10.60
2022-09-01T07:01:43.187Z,12.10
2022-09-01T07:02:43.480Z,13.40
2022-09-01T07:03:44.638Z,11.40
2022-09-01T07:04:44.019Z,13.40
2022-09-01T07:06:01.350Z,12.50
2022-09-01T07:07:53.385Z,13.40
2022-09-01T07:09:49.970Z,13.80
2022-09-01T07:16:52.517Z,13.10
2022-09-01T07:17:48.991Z,11.50
2022-09-01T07:18:58.353Z,11.90
2022-09-01T07:19:49.535Z,14.30
2022-09-01T07:23:06.660Z,15.10
2022-09-01T07:24:10.280Z,15.80
2022-09-01T07:25:11.477Z,15.00
2022-09-01T07:26:06.542Z,11.90
2022-09-01T07:26:51.546Z,11.50
2022-09-01T07:27:50.855Z,10.80
2022-09-01T07:28:51.418Z,11.20
2022-09-01T07:29:52.401Z,11.10
2022-09-01T07:30:51.679Z,11.20
2022-09-01T07:32:41.122Z,10.50
2022-09-01T07:32:53.871Z,12.00
2022-09-01T07:33:54.354Z,14.20
2022-09-01T07:34:52.921Z,14.00
2022-09-01T07:39:55.686Z,12.80
2022-09-01T07:43:56.534Z,9.20
2022-09-01T07:44:55.989Z,11.60
2022-09-01T07:45:59.599Z,9.50
2022-09-01T07:47:57.622Z,9.50
2022-09-01T07:50:37.462Z,12.40
2022-09-01T07:51:59.768Z,9.50
2022-09-01T07:52:58.013Z,10.10
2022-09-01T07:53:58.314Z,9.40
2022-09-01T07:54:58.522Z,8.30
2022-09-01T07:55:58.801Z,10.60
2022-09-01T07:56:59.067Z,12.60
2022-09-01T07:57:59.305Z,10.20
2022-09-01T07:58:59.615Z,9.70
2022-09-01T07:59:59.849Z,9.20
2022-09-01T08:01:00.113Z,12.10
2022-09-01T08:02:00.360Z,9.40
2022-09-01T08:03:00.675Z,11.90
2022-09-01T08:04:00.899Z,13.90
2022-09-01T08:05:01.112Z,11.90
2022-09-01T08:06:01.399Z,12.30
2022-09-01T08:07:01.682Z,14.70
2022-09-01T08:08:01.925Z,14.60
2022-09-01T08:09:02.253Z,12.20
2022-09-01T08:10:02.493Z,11.00
2022-09-01T08:11:05.775Z,15.30
2022-09-01T08:12:03.324Z,13.70
2022-09-01T08:13:03.280Z,11.00
2022-09-01T08:14:03.651Z,10.70
2022-09-01T08:16:07.517Z,14.10
2022-09-01T08:18:05.739Z,16.80
2022-09-01T08:19:05.490Z,9.50
2022-09-01T08:20:06.251Z,12.40
2022-09-01T08:21:05.522Z,11.80
2022-09-01T08:22:05.779Z,11.90
2022-09-01T08:23:06.057Z,13.30
2022-09-01T08:24:06.354Z,14.60
2022-09-01T08:25:06.564Z,12.70
2022-09-01T08:26:06.822Z,10.00
2022-09-01T08:27:07.122Z,9.50
2022-09-01T08:28:07.354Z,10.90
2022-09-01T08:29:07.643Z,11.20
2022-09-01T08:30:07.920Z,10.20
2022-09-01T08:31:11.198Z,12.00
2022-09-01T08:32:08.473Z,10.30
2022-09-01T08:33:11.794Z,10.10
2022-09-01T08:34:09.178Z,10.00
2022-09-01T08:35:09.398Z,12.80
2022-09-01T08:36:10.108Z,10.90
2022-09-01T08:37:09.965Z,9.80
2022-09-01T08:38:10.201Z,15.80
2022-09-01T08:39:10.456Z,11.90
2022-09-01T08:40:10.832Z,10.90
2022-09-01T08:41:10.994Z,11.10
2022-09-01T08:42:11.277Z,10.30
2022-09-01T08:43:15.324Z,10.90
2022-09-01T08:44:11.807Z,10.70
2022-09-01T08:45:12.034Z,12.20
2022-09-01T08:46:12.389Z,11.90
2022-09-01T08:47:13.744Z,14.00
2022-09-01T08:48:57.180Z,13.00
2022-09-01T08:49:30.356Z,11.20
2022-09-01T08:50:14.532Z,12.60
2022-09-01T08:51:17.181Z,9.70
2022-09-01T08:52:15.542Z,11.20
2022-09-01T08:53:14.357Z,10.70
2022-09-01T08:54:14.552Z,11.30
2022-09-01T08:55:14.863Z,10.70
2022-09-01T08:56:15.172Z,10.30
2022-09-01T08:57:15.480Z,12.40
2022-09-01T08:58:15.661Z,9.70
2022-09-01T08:59:15.932Z,13.70
2022-09-01T09:00:16.310Z,12.20
2022-09-01T09:01:17.785Z,13.10
2022-09-01T09:02:16.851Z,12.70
2022-09-01T09:03:17.164Z,12.00
2022-09-01T09:04:17.432Z,10.90
2022-09-01T09:05:17.708Z,12.80
2022-09-01T09:06:18.005Z,12.90
2022-09-01T09:07:18.313Z,9.90
2022-09-01T09:08:18.531Z,13.50
2022-09-01T09:09:18.932Z,11.20
2022-09-01T09:10:19.145Z,10.90
2022-09-01T09:11:19.411Z,10.30
2022-09-01T09:12:19.704Z,8.50
2022-09-01T09:13:20.194Z,11.20
2022-09-01T09:14:20.213Z,12.00
2022-09-01T09:15:20.467Z,9.40
2022-09-01T09:16:20.744Z,12.00
2022-09-01T09:17:21.028Z,11.80
2022-09-01T09:18:38.773Z,11.60
2022-09-01T09:19:22.557Z,10.20
2022-09-01T09:20:21.910Z,10.20
2022-09-01T09:21:22.170Z,10.40
2022-09-01T09:22:22.508Z,11.70
2022-09-01T09:23:22.915Z,11.20
2022-09-01T09:24:23.062Z,8.50
2022-09-01T09:25:23.208Z,10.30
2022-09-01T09:26:23.512Z,12.50
2022-09-01T09:27:23.766Z,10.00
2022-09-01T09:28:24.491Z,11.00
2022-09-01T09:29:24.280Z,10.20
2022-09-01T09:30:24.814Z,10.30
2022-09-01T09:31:24.846Z,12.30
2022-09-01T09:32:39.316Z,10.70
2022-09-01T09:33:49.824Z,11.30
2022-09-01T09:34:26.572Z,8.60
2022-09-01T09:35:25.864Z,11.10
2022-09-01T09:36:26.125Z,10.00
2022-09-01T09:37:26.445Z,10.30
2022-09-01T09:38:26.684Z,12.30
2022-09-01T09:39:26.967Z,10.60
2022-09-01T09:40:27.387Z,10.70
2022-09-01T09:41:27.674Z,9.30
2022-09-01T09:42:34.028Z,8.70
2022-09-01T09:43:29.047Z,12.90
2022-09-01T09:44:28.297Z,10.00
2022-09-01T09:45:28.592Z,11.90
2022-09-01T09:46:28.949Z,8.10
2022-09-01T09:47:43.172Z,10.00
2022-09-01T09:48:30.450Z,12.20
2022-09-01T09:49:34.764Z,10.90
2022-09-01T09:50:31.000Z,8.20
2022-09-01T09:51:30.271Z,11.30
2022-09-01T09:52:30.536Z,8.20
2022-09-01T09:53:30.821Z,12.00
2022-09-01T09:54:31.061Z,12.60
2022-09-01T09:55:31.410Z,8.00
2022-09-01T09:56:31.613Z,9.70
2022-09-01T09:57:31.957Z,10.10
2022-09-01T09:58:32.223Z,9.80
2022-09-01T09:59:54.149Z,11.40
2022-09-01T10:00:33.703Z,9.40
2022-09-01T10:01:33.038Z,10.40
2022-09-01T10:02:33.324Z,10.60
2022-09-01T10:03:33.507Z,11.70
2022-09-01T10:04:33.803Z,10.40
2022-09-01T10:05:34.088Z,10.60
2022-09-01T10:06:34.340Z,9.30
2022-09-01T10:07:34.671Z,10.60
2022-09-01T10:08:34.908Z,8.20
2022-09-01T10:09:35.385Z,10.20
2022-09-01T10:10:35.692Z,8.60
2022-09-01T10:11:36.114Z,10.40
2022-09-01T10:12:37.232Z,9.40
2022-09-01T10:13:36.696Z,13.00
2022-09-01T10:14:52.178Z,11.80
2022-09-01T10:15:38.167Z,11.10
2022-09-01T10:16:37.374Z,11.00
2022-09-01T10:17:37.725Z,8.90
2022-09-01T10:18:37.896Z,8.50
2022-09-01T10:19:38.289Z,8.50
2022-09-01T10:20:38.486Z,10.00
2022-09-01T10:21:38.740Z,7.90
2022-09-01T10:22:39.023Z,7.10
2022-09-01T10:23:41.464Z,7.90
2022-09-01T10:24:45.379Z,6.70
2022-09-01T10:25:40.850Z,9.40
2022-09-01T10:26:40.125Z,9.40
2022-09-01T10:27:40.347Z,7.90
2022-09-01T10:28:40.631Z,10.50
2022-09-01T10:29:49.306Z,9.50
2022-09-01T10:30:42.318Z,8.30
2022-09-01T10:31:41.506Z,7.70
2022-09-01T10:32:49.279Z,6.50
2022-09-01T10:33:43.103Z,7.60
2022-09-01T10:34:42.413Z,7.50
2022-09-01T10:35:42.670Z,7.80
2022-09-01T10:36:46.939Z,8.60
2022-09-01T10:37:43.158Z,8.80
2022-09-01T10:38:50.431Z,7.50
2022-09-01T10:39:44.738Z,6.60
2022-09-01T10:40:44.192Z,7.20
2022-09-01T10:41:44.283Z,6.80
2022-09-01T10:42:45.333Z,6.80
2022-09-01T10:43:44.820Z,10.10
2022-09-01T10:44:45.065Z,11.50
2022-09-01T10:45:51.244Z,10.00
2022-09-01T10:46:50.988Z,8.40
2022-09-01T10:47:45.987Z,8.10
2022-09-01T10:48:51.891Z,8.50
2022-09-01T10:49:47.635Z,7.10
2022-09-01T10:50:46.769Z,10.50
2022-09-01T10:51:51.765Z,8.00
2022-09-01T10:52:50.523Z,8.90
2022-09-01T10:53:47.646Z,8.60
2022-09-01T10:54:51.773Z,8.00
2022-09-01T10:55:48.160Z,9.10
2022-09-01T10:56:51.876Z,8.20
2022-09-01T10:57:48.664Z,5.90
2022-09-01T10:59:56.735Z,8.00
2022-09-01T11:01:51.233Z,6.80
2022-09-01T11:02:50.226Z,13.20
2022-09-01T11:03:51.904Z,6.60
2022-09-01T11:04:50.894Z,8.90
2022-09-01T11:05:52.739Z,7.40
2022-09-01T11:08:20.982Z,7.40
2022-09-01T11:08:52.889Z,6.70
2022-09-01T11:09:57.482Z,8.50
2022-09-01T11:10:53.579Z,6.80
2022-09-01T11:11:52.842Z,7.30
2022-09-01T11:12:53.183Z,5.40
2022-09-01T11:13:53.497Z,7.90
2022-09-01T11:14:53.675Z,7.10
2022-09-01T11:15:53.925Z,6.80
2022-09-01T11:16:54.181Z,7.40
2022-09-01T11:17:54.567Z,8.10
2022-09-01T11:18:54.757Z,6.50
2022-09-01T11:19:55.545Z,6.20
2022-09-01T11:20:55.301Z,7.80
2022-09-01T11:21:55.584Z,7.20
2022-09-01T11:22:55.889Z,7.90
2022-09-01T11:23:56.090Z,6.90
2022-09-01T11:25:02.419Z,7.00
2022-09-01T11:26:57.957Z,9.40
2022-09-01T11:27:57.258Z,6.50
2022-09-01T11:28:57.485Z,7.30
2022-09-01T11:29:57.735Z,5.60
2022-09-01T11:30:57.973Z,7.20
2022-09-01T11:31:58.341Z,6.10
2022-09-01T11:32:58.612Z,8.00
2022-09-01T11:33:58.890Z,7.80
2022-09-01T11:34:59.132Z,5.60
2022-09-01T11:35:59.414Z,6.90
2022-09-01T11:36:59.679Z,7.70
2022-09-01T11:37:59.995Z,6.60
2022-09-01T11:39:00.266Z,40.30
2022-09-01T11:40:00.522Z,6.20
2022-09-01T11:41:00.822Z,6.90
2022-09-01T11:42:04.105Z,7.10
2022-09-01T11:43:01.449Z,9.10
2022-09-01T11:44:01.701Z,7.50
2022-09-01T11:45:01.986Z,6.70
2022-09-01T11:46:02.278Z,5.70
2022-09-01T11:47:02.535Z,6.10
2022-09-01T11:48:02.824Z,6.50
2022-09-01T11:49:03.099Z,7.40
2022-09-01T11:50:03.377Z,7.00
2022-09-01T11:51:03.673Z,7.80
2022-09-01T11:52:03.919Z,8.00
2022-09-01T11:53:05.425Z,9.40
2022-09-01T11:54:04.395Z,7.40
2022-09-01T11:55:04.799Z,7.40
2022-09-01T11:56:05.022Z,7.90
2022-09-01T11:57:05.265Z,8.80
2022-09-01T11:58:05.545Z,6.30
2022-09-01T11:59:05.799Z,6.60
2022-09-01T12:00:06.121Z,5.80
2022-09-01T12:01:06.366Z,6.50
2022-09-01T12:02:06.658Z,6.00
2022-09-01T12:03:07.442Z,6.20
2022-09-01T12:04:07.119Z,6.00
2022-09-01T12:05:07.327Z,7.30
2022-09-01T12:06:07.543Z,6.60
2022-09-01T12:07:10.730Z,6.80
2022-09-01T12:08:08.145Z,6.90
2022-09-01T12:09:08.419Z,6.00
2022-09-01T12:10:08.658Z,8.20
2022-09-01T12:11:08.906Z,7.80
2022-09-01T12:12:09.231Z,7.00
2022-09-01T12:13:09.484Z,5.90
2022-09-01T12:14:11.620Z,5.90
2022-09-01T12:15:10.032Z,7.10
2022-09-01T12:16:18.908Z,6.80
2022-09-01T12:17:11.609Z,7.30
2022-09-01T12:18:10.915Z,6.80
2022-09-01T12:19:11.188Z,6.70
2022-09-01T12:20:11.546Z,6.20
2022-09-01T12:21:11.779Z,6.00
2022-09-01T12:22:12.015Z,5.50
2022-09-01T12:23:12.308Z,7.40
2022-09-01T12:24:12.515Z,5.10
2022-09-01T12:25:12.916Z,5.10
2022-09-01T12:26:13.187Z,5.30
2022-09-01T12:27:13.560Z,6.70
2022-09-01T12:28:13.810Z,5.50
2022-09-01T12:29:13.969Z,7.30
2022-09-01T12:30:14.353Z,6.60
2022-09-01T12:31:14.569Z,6.50
2022-09-01T12:32:14.995Z,6.30
2022-09-01T12:33:23.512Z,5.40
2022-09-01T12:34:17.263Z,8.90
2022-09-01T12:35:15.621Z,7.00
2022-09-01T12:36:15.970Z,7.30
2022-09-01T12:37:16.284Z,6.70
2022-09-01T12:38:16.581Z,6.90
2022-09-01T12:39:16.797Z,6.10
2022-09-01T12:40:17.123Z,6.90
2022-09-01T12:41:17.325Z,6.90
2022-09-01T12:42:17.513Z,6.90
2022-09-01T12:43:17.930Z,7.20
2022-09-01T12:44:18.147Z,6.20
2022-09-01T12:45:18.478Z,6.10
2022-09-01T12:46:18.712Z,5.70
2022-09-01T12:47:18.952Z,6.30
2022-09-01T12:48:19.721Z,6.80
2022-09-01T12:49:19.571Z,7.10
2022-09-01T12:50:19.769Z,5.70
2022-09-01T12:51:21.284Z,6.40
2022-09-01T12:52:20.547Z,7.00
2022-09-01T12:53:20.977Z,6.40
2022-09-01T12:54:21.328Z,7.40
2022-09-01T12:56:22.491Z,6.80
2022-09-01T12:57:21.768Z,5.70
2022-09-01T12:58:22.036Z,7.30
2022-09-01T12:59:25.367Z,6.50
2022-09-01T13:00:23.513Z,6.20
2022-09-01T13:01:22.799Z,7.50
2022-09-01T13:02:23.233Z,7.00
2022-09-01T13:03:23.711Z,8.10
2022-09-01T13:04:23.631Z,6.00
2022-09-01T13:05:28.468Z,5.90
2022-09-01T13:06:25.241Z,7.20
2022-09-01T13:07:24.379Z,6.70
2022-09-01T13:08:24.616Z,8.40
2022-09-01T13:09:24.866Z,6.90
2022-09-01T13:10:25.177Z,6.00
2022-09-01T13:11:25.487Z,6.40
2022-09-01T13:12:25.794Z,7.10
2022-09-01T13:13:25.970Z,6.90
2022-09-01T13:14:26.299Z,6.00
2022-09-01T13:15:26.650Z,5.30
2022-09-01T13:16:26.913Z,5.80
2022-09-01T13:17:27.192Z,7.10
2022-09-01T13:18:27.495Z,7.90
2022-09-01T13:19:30.193Z,9.20
2022-09-01T13:20:27.982Z,8.20
2022-09-01T13:21:28.381Z,7.70
2022-09-01T13:22:28.625Z,10.30
2022-09-01T13:23:28.913Z,7.80
2022-09-01T13:24:31.590Z,6.90
2022-09-01T13:25:29.503Z,8.50
2022-09-01T13:26:29.878Z,7.70
2022-09-01T13:27:30.178Z,10.70
2022-09-01T13:28:30.696Z,8.10
2022-09-01T13:29:30.674Z,8.60
2022-09-01T13:30:30.887Z,7.50
2022-09-01T13:31:31.771Z,7.70
2022-09-01T13:32:31.567Z,6.40
2022-09-01T13:34:09.229Z,6.50
2022-09-01T13:34:33.257Z,5.20
2022-09-01T13:35:32.295Z,6.40
2022-09-01T13:36:51.692Z,5.60
2022-09-01T13:37:33.833Z,5.90
2022-09-01T13:38:33.073Z,7.70